Estación de Tranapuente INIA

Ultimos registro cada 15 minutos 45
Estación Fecha / Hora Temperatura Humedad Lluvia Velocidad Dirección Radiación Presion
45 Tranapuente INIA 31-08-2026 11:00 13,1 63,4 0 0 0 497,2 1016
44 Tranapuente INIA 31-08-2026 10:45 11,7 68,8 0 0,1 103 386,1 1016
43 Tranapuente INIA 31-08-2026 10:30 11,4 76,4 0 0,2 82 289,2 1016
42 Tranapuente INIA 31-08-2026 10:15 11,1 79 0 0,4 107 342,6 1016
41 Tranapuente INIA 31-08-2026 10:00 10,8 79,5 0 0 0 268,3 1016
40 Tranapuente INIA 31-08-2026 09:45 10,1 80,7 0 0 0 263,1 1016
39 Tranapuente INIA 31-08-2026 09:30 9,8 83 0 0,6 97 262,8 1015
38 Tranapuente INIA 31-08-2026 09:15 9,3 86,8 0 0 0 288,4 1015
37 Tranapuente INIA 31-08-2026 09:00 8,2 88,7 0 0 0 249,5 1015
36 Tranapuente INIA 31-08-2026 08:45 7,1 93,2 0 0 84 119,2 1015
35 Tranapuente INIA 31-08-2026 08:30 6,7 94,1 0 0 0 99,4 1014
34 Tranapuente INIA 31-08-2026 08:15 6,2 95,4 0 0,1 58 67,3 1014
33 Tranapuente INIA 31-08-2026 08:00 6 96,1 0 0 0 36,1 1014
32 Tranapuente INIA 31-08-2026 07:45 5,8 97,1 0 0,3 60 17 1014
31 Tranapuente INIA 31-08-2026 07:30 5,7 97,9 0 0,2 65 4,8 1014
30 Tranapuente INIA 31-08-2026 07:15 5,8 98,4 0 0 52 0,9 1014
29 Tranapuente INIA 31-08-2026 07:00 5,8 99 0 0 0 0,1 1013
28 Tranapuente INIA 31-08-2026 06:45 5,9 98,8 0 0 0 0 1013
27 Tranapuente INIA 31-08-2026 06:30 5,9 99,4 0 0 0 0 1013
26 Tranapuente INIA 31-08-2026 06:15 6,1 99,5 0 0 53 0 1013
25 Tranapuente INIA 31-08-2026 06:00 6,2 100 0 0 0 0 1013
24 Tranapuente INIA 31-08-2026 05:45 6,2 99,9 0 0 58 0 1013
23 Tranapuente INIA 31-08-2026 05:30 5,9 99,9 0 0 0 0 1013
22 Tranapuente INIA 31-08-2026 05:15 6,4 98,7 0 0 0 0 1013
21 Tranapuente INIA 31-08-2026 05:00 6,7 99,8 0 0 0 0 1013
20 Tranapuente INIA 31-08-2026 04:45 6,8 99,9 0 0 0 0 1012
19 Tranapuente INIA 31-08-2026 04:30 6,7 99,9 0,1 0 0 0 1012
18 Tranapuente INIA 31-08-2026 04:15 6,2 99,8 0 0 0 0 1012
17 Tranapuente INIA 31-08-2026 04:00 6,1 100 0 0 0 0 1012
16 Tranapuente INIA 31-08-2026 03:45 6,6 99,5 0 0 0 0 1012
15 Tranapuente INIA 31-08-2026 03:30 6,6 99,9 0 0 0 0 1012
14 Tranapuente INIA 31-08-2026 03:15 6,7 99,4 0 0 0 0,1 1012
13 Tranapuente INIA 31-08-2026 03:00 7,1 99,5 0 0 0 0,2 1012
12 Tranapuente INIA 31-08-2026 02:45 7,3 99,5 0 0 0 0,1 1012
11 Tranapuente INIA 31-08-2026 02:30 7,5 99,8 0 0 0 0,1 1011
10 Tranapuente INIA 31-08-2026 02:15 7,7 99,2 0 0 0 0,2 1011
9 Tranapuente INIA 31-08-2026 02:00 8,2 99 0 0 0 0,2 1011
8 Tranapuente INIA 31-08-2026 01:45 8,4 99,3 0 0 0 0,2 1011
7 Tranapuente INIA 31-08-2026 01:30 8,5 99,3 0 0 0 0,2 1011
6 Tranapuente INIA 31-08-2026 01:15 8,6 99,1 0 0 0 0,2 1011
5 Tranapuente INIA 31-08-2026 01:00 8,8 99,3 0 0 0 0,2 1011
4 Tranapuente INIA 31-08-2026 00:45 8,8 99,1 0 0 0 0,2 1011
3 Tranapuente INIA 31-08-2026 00:30 8,8 99,2 0,2 0 0 0,2 1011
2 Tranapuente INIA 31-08-2026 00:15 8,9 99,1 0 0 0 0,2 1011
1 Tranapuente INIA 31-08-2026 00:00 9 99 0,1 0 0 0,2 1011